sensor_id;sensor_type;location;lat;lon;timestamp;P1;durP1;ratioP1;P2;durP2;ratioP2
39128;SDS011;24864;49.940;19.770;2023-02-24T00:00:18;46.17;;;23.58;;
39128;SDS011;24864;49.940;19.770;2023-02-24T00:03:12;44.55;;;23.95;;
39128;SDS011;24864;49.940;19.770;2023-02-24T00:05:40;41.58;;;21.90;;
39128;SDS011;24864;49.940;19.770;2023-02-24T00:08:10;38.20;;;22.60;;
39128;SDS011;24864;49.940;19.770;2023-02-24T00:10:38;38.00;;;21.85;;
39128;SDS011;24864;49.940;19.770;2023-02-24T00:13:06;35.85;;;23.30;;
39128;SDS011;24864;49.940;19.770;2023-02-24T00:15:39;37.78;;;22.25;;
39128;SDS011;24864;49.940;19.770;2023-02-24T00:18:07;42.92;;;22.08;;
39128;SDS011;24864;49.940;19.770;2023-02-24T00:20:36;40.78;;;22.38;;
39128;SDS011;24864;49.940;19.770;2023-02-24T00:23:04;39.63;;;22.63;;
39128;SDS011;24864;49.940;19.770;2023-02-24T00:25:35;38.60;;;22.80;;
39128;SDS011;24864;49.940;19.770;2023-02-24T00:28:03;38.50;;;22.90;;
39128;SDS011;24864;49.940;19.770;2023-02-24T00:30:31;39.13;;;22.55;;
39128;SDS011;24864;49.940;19.770;2023-02-24T00:33:01;43.35;;;22.65;;
39128;SDS011;24864;49.940;19.770;2023-02-24T00:35:30;40.58;;;23.77;;
39128;SDS011;24864;49.940;19.770;2023-02-24T00:37:58;34.90;;;21.92;;
39128;SDS011;24864;49.940;19.770;2023-02-24T00:40:26;40.97;;;23.88;;
39128;SDS011;24864;49.940;19.770;2023-02-24T00:42:55;41.33;;;24.13;;
39128;SDS011;24864;49.940;19.770;2023-02-24T00:45:24;39.20;;;23.83;;
39128;SDS011;24864;49.940;19.770;2023-02-24T00:47:56;39.25;;;24.27;;
39128;SDS011;24864;49.940;19.770;2023-02-24T00:50:25;36.42;;;23.55;;
39128;SDS011;24864;49.940;19.770;2023-02-24T00:52:53;38.33;;;23.25;;
39128;SDS011;24864;49.940;19.770;2023-02-24T00:55:22;42.75;;;23.92;;
39128;SDS011;24864;49.940;19.770;2023-02-24T00:58:02;45.65;;;23.70;;
39128;SDS011;24864;49.940;19.770;2023-02-24T01:00:32;37.65;;;22.52;;
39128;SDS011;24864;49.940;19.770;2023-02-24T01:03:02;36.03;;;21.65;;
39128;SDS011;24864;49.940;19.770;2023-02-24T01:05:34;39.28;;;22.80;;
39128;SDS011;24864;49.940;19.770;2023-02-24T01:08:02;37.10;;;21.95;;
39128;SDS011;24864;49.940;19.770;2023-02-24T01:10:31;40.05;;;23.70;;
39128;SDS011;24864;49.940;19.770;2023-02-24T01:13:00;42.80;;;22.80;;
39128;SDS011;24864;49.940;19.770;2023-02-24T01:15:28;38.40;;;21.98;;
39128;SDS011;24864;49.940;19.770;2023-02-24T01:17:56;36.05;;;22.23;;
39128;SDS011;24864;49.940;19.770;2023-02-24T01:20:24;40.03;;;22.98;;
39128;SDS011;24864;49.940;19.770;2023-02-24T01:22:57;34.47;;;22.53;;
39128;SDS011;24864;49.940;19.770;2023-02-24T01:25:25;36.67;;;22.05;;
39128;SDS011;24864;49.940;19.770;2023-02-24T01:27:56;40.47;;;23.10;;
39128;SDS011;24864;49.940;19.770;2023-02-24T01:30:25;39.92;;;23.00;;
39128;SDS011;24864;49.940;19.770;2023-02-24T01:32:52;36.15;;;22.52;;
39128;SDS011;24864;49.940;19.770;2023-02-24T01:35:24;35.95;;;22.25;;
39128;SDS011;24864;49.940;19.770;2023-02-24T01:37:52;44.90;;;22.88;;
39128;SDS011;24864;49.940;19.770;2023-02-24T01:40:21;36.30;;;22.55;;
39128;SDS011;24864;49.940;19.770;2023-02-24T01:42:51;40.03;;;22.75;;
39128;SDS011;24864;49.940;19.770;2023-02-24T01:45:21;41.42;;;22.95;;
39128;SDS011;24864;49.940;19.770;2023-02-24T01:47:50;40.28;;;24.10;;
39128;SDS011;24864;49.940;19.770;2023-02-24T01:50:20;45.78;;;23.00;;
39128;SDS011;24864;49.940;19.770;2023-02-24T01:52:51;41.30;;;22.73;;
39128;SDS011;24864;49.940;19.770;2023-02-24T01:57:57;37.22;;;22.33;;
39128;SDS011;24864;49.940;19.770;2023-02-24T02:00:27;37.95;;;21.85;;
39128;SDS011;24864;49.940;19.770;2023-02-24T02:03:05;38.65;;;21.00;;
39128;SDS011;24864;49.940;19.770;2023-02-24T02:05:36;41.83;;;23.90;;
39128;SDS011;24864;49.940;19.770;2023-02-24T02:08:05;45.78;;;23.98;;
39128;SDS011;24864;49.940;19.770;2023-02-24T02:10:36;45.15;;;22.00;;
39128;SDS011;24864;49.940;19.770;2023-02-24T02:13:06;38.95;;;21.85;;
39128;SDS011;24864;49.940;19.770;2023-02-24T02:15:37;36.53;;;21.80;;
39128;SDS011;24864;49.940;19.770;2023-02-24T02:18:12;33.60;;;21.13;;
39128;SDS011;24864;49.940;19.770;2023-02-24T02:23:50;36.95;;;21.08;;
39128;SDS011;24864;49.940;19.770;2023-02-24T02:29:55;33.20;;;19.88;;
39128;SDS011;24864;49.940;19.770;2023-02-24T02:35:36;33.97;;;20.50;;
39128;SDS011;24864;49.940;19.770;2023-02-24T02:38:08;38.97;;;19.63;;
39128;SDS011;24864;49.940;19.770;2023-02-24T02:40:41;29.98;;;18.63;;
39128;SDS011;24864;49.940;19.770;2023-02-24T02:43:13;34.72;;;19.23;;
39128;SDS011;24864;49.940;19.770;2023-02-24T02:45:44;28.80;;;17.23;;
39128;SDS011;24864;49.940;19.770;2023-02-24T02:48:15;22.88;;;15.25;;
39128;SDS011;24864;49.940;19.770;2023-02-24T02:50:48;26.92;;;16.77;;
39128;SDS011;24864;49.940;19.770;2023-02-24T02:53:22;23.60;;;14.38;;
39128;SDS011;24864;49.940;19.770;2023-02-24T02:55:53;23.77;;;15.05;;
39128;SDS011;24864;49.940;19.770;2023-02-24T02:58:25;22.42;;;14.25;;
39128;SDS011;24864;49.940;19.770;2023-02-24T03:00:57;23.13;;;14.40;;
39128;SDS011;24864;49.940;19.770;2023-02-24T03:03:29;18.02;;;12.45;;
39128;SDS011;24864;49.940;19.770;2023-02-24T03:06:01;19.60;;;13.73;;
39128;SDS011;24864;49.940;19.770;2023-02-24T03:08:33;19.02;;;13.70;;
39128;SDS011;24864;49.940;19.770;2023-02-24T03:13:34;18.35;;;13.25;;
39128;SDS011;24864;49.940;19.770;2023-02-24T03:16:04;17.35;;;12.13;;
39128;SDS011;24864;49.940;19.770;2023-02-24T03:18:36;19.55;;;12.05;;
39128;SDS011;24864;49.940;19.770;2023-02-24T03:21:07;17.85;;;13.30;;
39128;SDS011;24864;49.940;19.770;2023-02-24T03:28:47;20.42;;;13.00;;
39128;SDS011;24864;49.940;19.770;2023-02-24T03:31:21;16.23;;;12.65;;
39128;SDS011;24864;49.940;19.770;2023-02-24T03:33:56;16.15;;;12.30;;
39128;SDS011;24864;49.940;19.770;2023-02-24T03:36:30;20.88;;;12.35;;
39128;SDS011;24864;49.940;19.770;2023-02-24T03:38:59;19.88;;;13.10;;
39128;SDS011;24864;49.940;19.770;2023-02-24T03:41:34;16.05;;;12.13;;
39128;SDS011;24864;49.940;19.770;2023-02-24T03:44:05;17.25;;;12.20;;
39128;SDS011;24864;49.940;19.770;2023-02-24T03:46:35;17.65;;;12.15;;
39128;SDS011;24864;49.940;19.770;2023-02-24T03:49:06;21.75;;;12.55;;
39128;SDS011;24864;49.940;19.770;2023-02-24T03:51:43;18.08;;;11.75;;
39128;SDS011;24864;49.940;19.770;2023-02-24T03:54:25;17.10;;;11.70;;
39128;SDS011;24864;49.940;19.770;2023-02-24T03:57:15;18.35;;;12.45;;
39128;SDS011;24864;49.940;19.770;2023-02-24T03:59:49;17.67;;;12.05;;
39128;SDS011;24864;49.940;19.770;2023-02-24T04:02:24;12.27;;;10.63;;
39128;SDS011;24864;49.940;19.770;2023-02-24T04:04:55;17.00;;;11.88;;
39128;SDS011;24864;49.940;19.770;2023-02-24T04:07:34;19.35;;;12.50;;
39128;SDS011;24864;49.940;19.770;2023-02-24T04:10:08;15.65;;;10.55;;
39128;SDS011;24864;49.940;19.770;2023-02-24T04:12:42;15.45;;;11.43;;
39128;SDS011;24864;49.940;19.770;2023-02-24T04:15:14;18.48;;;11.63;;
39128;SDS011;24864;49.940;19.770;2023-02-24T04:17:47;14.82;;;10.50;;
39128;SDS011;24864;49.940;19.770;2023-02-24T04:20:18;20.63;;;11.02;;
39128;SDS011;24864;49.940;19.770;2023-02-24T04:22:50;14.25;;;10.65;;
39128;SDS011;24864;49.940;19.770;2023-02-24T04:25:23;16.00;;;10.82;;
39128;SDS011;24864;49.940;19.770;2023-02-24T04:27:53;17.77;;;11.88;;
39128;SDS011;24864;49.940;19.770;2023-02-24T04:30:24;21.23;;;12.80;;
39128;SDS011;24864;49.940;19.770;2023-02-24T04:32:55;19.88;;;12.30;;
39128;SDS011;24864;49.940;19.770;2023-02-24T04:35:24;18.40;;;11.30;;
39128;SDS011;24864;49.940;19.770;2023-02-24T04:37:55;15.38;;;11.60;;
39128;SDS011;24864;49.940;19.770;2023-02-24T04:40:23;14.20;;;11.77;;
39128;SDS011;24864;49.940;19.770;2023-02-24T04:42:52;17.75;;;12.40;;
39128;SDS011;24864;49.940;19.770;2023-02-24T04:45:21;17.08;;;12.32;;
39128;SDS011;24864;49.940;19.770;2023-02-24T04:47:51;19.15;;;12.95;;
39128;SDS011;24864;49.940;19.770;2023-02-24T04:50:27;16.95;;;11.43;;
39128;SDS011;24864;49.940;19.770;2023-02-24T04:52:58;19.33;;;12.10;;
39128;SDS011;24864;49.940;19.770;2023-02-24T04:55:28;17.08;;;11.43;;
39128;SDS011;24864;49.940;19.770;2023-02-24T04:57:58;21.80;;;13.05;;
39128;SDS011;24864;49.940;19.770;2023-02-24T05:00:27;19.10;;;12.45;;
39128;SDS011;24864;49.940;19.770;2023-02-24T05:03:01;23.52;;;12.80;;
39128;SDS011;24864;49.940;19.770;2023-02-24T05:05:30;17.45;;;12.55;;
39128;SDS011;24864;49.940;19.770;2023-02-24T05:08:01;15.35;;;12.48;;
39128;SDS011;24864;49.940;19.770;2023-02-24T05:10:34;19.02;;;11.75;;
39128;SDS011;24864;49.940;19.770;2023-02-24T05:13:04;14.75;;;11.82;;
39128;SDS011;24864;49.940;19.770;2023-02-24T05:15:33;19.02;;;13.20;;
39128;SDS011;24864;49.940;19.770;2023-02-24T05:18:06;19.77;;;12.27;;
39128;SDS011;24864;49.940;19.770;2023-02-24T05:20:35;15.65;;;12.60;;
39128;SDS011;24864;49.940;19.770;2023-02-24T05:23:24;19.35;;;13.20;;
39128;SDS011;24864;49.940;19.770;2023-02-24T05:25:53;23.23;;;13.10;;
39128;SDS011;24864;49.940;19.770;2023-02-24T05:28:21;21.30;;;13.35;;
39128;SDS011;24864;49.940;19.770;2023-02-24T05:30:50;20.75;;;12.70;;
39128;SDS011;24864;49.940;19.770;2023-02-24T05:33:20;19.95;;;13.52;;
39128;SDS011;24864;49.940;19.770;2023-02-24T05:35:48;21.25;;;13.30;;
39128;SDS011;24864;49.940;19.770;2023-02-24T05:38:17;20.23;;;14.20;;
39128;SDS011;24864;49.940;19.770;2023-02-24T05:40:47;23.25;;;14.32;;
39128;SDS011;24864;49.940;19.770;2023-02-24T05:43:15;18.98;;;13.95;;
39128;SDS011;24864;49.940;19.770;2023-02-24T05:45:44;19.92;;;14.50;;
39128;SDS011;24864;49.940;19.770;2023-02-24T05:48:12;21.98;;;14.07;;
39128;SDS011;24864;49.940;19.770;2023-02-24T05:50:41;22.30;;;14.63;;
39128;SDS011;24864;49.940;19.770;2023-02-24T05:53:12;21.40;;;15.27;;
39128;SDS011;24864;49.940;19.770;2023-02-24T05:55:41;19.88;;;14.77;;
39128;SDS011;24864;49.940;19.770;2023-02-24T05:58:11;21.17;;;14.57;;
39128;SDS011;24864;49.940;19.770;2023-02-24T06:00:41;23.48;;;15.52;;
39128;SDS011;24864;49.940;19.770;2023-02-24T06:03:11;22.45;;;15.85;;
39128;SDS011;24864;49.940;19.770;2023-02-24T06:05:43;24.08;;;15.98;;
39128;SDS011;24864;49.940;19.770;2023-02-24T06:08:19;23.63;;;16.50;;
39128;SDS011;24864;49.940;19.770;2023-02-24T06:10:50;28.23;;;16.80;;
39128;SDS011;24864;49.940;19.770;2023-02-24T06:13:20;25.20;;;16.33;;
39128;SDS011;24864;49.940;19.770;2023-02-24T06:15:53;25.70;;;17.73;;
39128;SDS011;24864;49.940;19.770;2023-02-24T06:18:22;24.02;;;16.70;;
39128;SDS011;24864;49.940;19.770;2023-02-24T06:20:51;23.17;;;16.23;;
39128;SDS011;24864;49.940;19.770;2023-02-24T06:23:19;23.30;;;14.75;;
39128;SDS011;24864;49.940;19.770;2023-02-24T06:25:48;20.35;;;14.10;;
39128;SDS011;24864;49.940;19.770;2023-02-24T06:28:15;23.33;;;14.25;;
39128;SDS011;24864;49.940;19.770;2023-02-24T06:30:46;22.38;;;14.50;;
39128;SDS011;24864;49.940;19.770;2023-02-24T06:33:15;22.00;;;14.07;;
39128;SDS011;24864;49.940;19.770;2023-02-24T06:35:43;18.88;;;14.10;;
39128;SDS011;24864;49.940;19.770;2023-02-24T06:38:11;21.27;;;13.23;;
39128;SDS011;24864;49.940;19.770;2023-02-24T06:40:40;21.08;;;13.80;;
39128;SDS011;24864;49.940;19.770;2023-02-24T06:43:08;22.42;;;12.90;;
39128;SDS011;24864;49.940;19.770;2023-02-24T06:45:37;21.10;;;13.73;;
39128;SDS011;24864;49.940;19.770;2023-02-24T06:48:06;22.02;;;13.30;;
39128;SDS011;24864;49.940;19.770;2023-02-24T06:50:35;19.33;;;12.88;;
39128;SDS011;24864;49.940;19.770;2023-02-24T06:53:04;22.30;;;13.63;;
39128;SDS011;24864;49.940;19.770;2023-02-24T06:55:43;19.60;;;13.10;;
39128;SDS011;24864;49.940;19.770;2023-02-24T06:58:15;21.30;;;13.55;;
39128;SDS011;24864;49.940;19.770;2023-02-24T07:00:44;22.20;;;14.48;;
39128;SDS011;24864;49.940;19.770;2023-02-24T07:03:24;22.60;;;13.35;;
39128;SDS011;24864;49.940;19.770;2023-02-24T07:06:05;20.90;;;13.85;;
39128;SDS011;24864;49.940;19.770;2023-02-24T07:08:51;17.00;;;12.90;;
39128;SDS011;24864;49.940;19.770;2023-02-24T07:11:20;18.35;;;13.30;;
39128;SDS011;24864;49.940;19.770;2023-02-24T07:13:49;18.90;;;12.48;;
39128;SDS011;24864;49.940;19.770;2023-02-24T07:16:20;18.23;;;12.68;;
39128;SDS011;24864;49.940;19.770;2023-02-24T07:18:53;18.40;;;12.47;;
39128;SDS011;24864;49.940;19.770;2023-02-24T07:21:23;16.27;;;12.43;;
39128;SDS011;24864;49.940;19.770;2023-02-24T07:23:52;19.00;;;13.02;;
39128;SDS011;24864;49.940;19.770;2023-02-24T07:28:56;18.48;;;11.13;;
39128;SDS011;24864;49.940;19.770;2023-02-24T07:31:24;15.43;;;11.50;;
39128;SDS011;24864;49.940;19.770;2023-02-24T07:33:54;15.43;;;11.18;;
39128;SDS011;24864;49.940;19.770;2023-02-24T07:36:23;15.98;;;11.20;;
39128;SDS011;24864;49.940;19.770;2023-02-24T07:38:56;17.45;;;11.68;;
39128;SDS011;24864;49.940;19.770;2023-02-24T07:41:25;15.35;;;10.55;;
39128;SDS011;24864;49.940;19.770;2023-02-24T07:43:56;17.08;;;10.93;;
39128;SDS011;24864;49.940;19.770;2023-02-24T07:48:59;16.40;;;10.43;;
39128;SDS011;24864;49.940;19.770;2023-02-24T07:51:29;16.17;;;10.40;;
39128;SDS011;24864;49.940;19.770;2023-02-24T07:53:58;20.13;;;10.52;;
39128;SDS011;24864;49.940;19.770;2023-02-24T07:56:28;14.63;;;10.30;;
39128;SDS011;24864;49.940;19.770;2023-02-24T07:58:59;13.50;;;9.02;;
39128;SDS011;24864;49.940;19.770;2023-02-24T08:01:29;15.50;;;9.25;;
39128;SDS011;24864;49.940;19.770;2023-02-24T08:04:06;12.82;;;9.00;;
39128;SDS011;24864;49.940;19.770;2023-02-24T08:06:38;12.18;;;9.52;;
39128;SDS011;24864;49.940;19.770;2023-02-24T08:09:12;11.93;;;8.68;;
39128;SDS011;24864;49.940;19.770;2023-02-24T08:11:45;14.18;;;9.43;;
39128;SDS011;24864;49.940;19.770;2023-02-24T08:14:17;11.10;;;7.55;;
39128;SDS011;24864;49.940;19.770;2023-02-24T08:16:50;13.32;;;8.98;;
39128;SDS011;24864;49.940;19.770;2023-02-24T08:19:26;11.30;;;8.40;;
39128;SDS011;24864;49.940;19.770;2023-02-24T08:21:59;9.60;;;7.93;;
39128;SDS011;24864;49.940;19.770;2023-02-24T08:24:45;10.40;;;7.90;;
39128;SDS011;24864;49.940;19.770;2023-02-24T08:27:16;9.03;;;7.20;;
39128;SDS011;24864;49.940;19.770;2023-02-24T08:29:46;10.68;;;7.40;;
39128;SDS011;24864;49.940;19.770;2023-02-24T08:32:26;9.15;;;7.38;;
39128;SDS011;24864;49.940;19.770;2023-02-24T08:35:01;10.27;;;7.38;;
39128;SDS011;24864;49.940;19.770;2023-02-24T08:37:31;9.00;;;7.03;;
39128;SDS011;24864;49.940;19.770;2023-02-24T08:40:06;8.35;;;6.53;;
39128;SDS011;24864;49.940;19.770;2023-02-24T08:42:55;9.48;;;6.57;;
39128;SDS011;24864;49.940;19.770;2023-02-24T08:45:25;9.02;;;7.03;;
39128;SDS011;24864;49.940;19.770;2023-02-24T08:47:54;10.45;;;7.40;;
39128;SDS011;24864;49.940;19.770;2023-02-24T08:50:27;10.70;;;7.88;;
39128;SDS011;24864;49.940;19.770;2023-02-24T08:52:59;10.85;;;8.07;;
39128;SDS011;24864;49.940;19.770;2023-02-24T08:55:29;13.30;;;7.95;;
39128;SDS011;24864;49.940;19.770;2023-02-24T08:57:58;11.38;;;7.95;;
39128;SDS011;24864;49.940;19.770;2023-02-24T09:00:27;11.05;;;7.70;;
39128;SDS011;24864;49.940;19.770;2023-02-24T09:03:15;12.27;;;9.60;;
39128;SDS011;24864;49.940;19.770;2023-02-24T09:06:01;14.00;;;9.05;;
39128;SDS011;24864;49.940;19.770;2023-02-24T09:08:32;15.20;;;9.00;;
39128;SDS011;24864;49.940;19.770;2023-02-24T09:13:34;13.15;;;9.60;;
39128;SDS011;24864;49.940;19.770;2023-02-24T09:16:08;11.45;;;9.10;;
39128;SDS011;24864;49.940;19.770;2023-02-24T09:18:42;14.18;;;10.77;;
39128;SDS011;24864;49.940;19.770;2023-02-24T09:21:12;15.52;;;9.80;;
39128;SDS011;24864;49.940;19.770;2023-02-24T09:23:58;16.05;;;10.35;;
39128;SDS011;24864;49.940;19.770;2023-02-24T09:26:30;13.90;;;10.10;;
39128;SDS011;24864;49.940;19.770;2023-02-24T09:29:09;15.68;;;11.07;;
39128;SDS011;24864;49.940;19.770;2023-02-24T09:31:59;23.15;;;13.80;;
39128;SDS011;24864;49.940;19.770;2023-02-24T09:34:39;15.52;;;11.20;;
39128;SDS011;24864;49.940;19.770;2023-02-24T09:37:11;15.35;;;11.13;;
39128;SDS011;24864;49.940;19.770;2023-02-24T09:39:51;19.60;;;13.43;;
39128;SDS011;24864;49.940;19.770;2023-02-24T09:42:39;18.70;;;12.85;;
39128;SDS011;24864;49.940;19.770;2023-02-24T09:45:14;17.52;;;12.43;;
39128;SDS011;24864;49.940;19.770;2023-02-24T09:47:58;34.78;;;19.92;;
39128;SDS011;24864;49.940;19.770;2023-02-24T09:50:37;19.95;;;12.75;;
39128;SDS011;24864;49.940;19.770;2023-02-24T09:53:29;16.57;;;12.13;;
39128;SDS011;24864;49.940;19.770;2023-02-24T09:56:09;18.00;;;10.88;;
39128;SDS011;24864;49.940;19.770;2023-02-24T09:58:43;19.05;;;12.80;;
39128;SDS011;24864;49.940;19.770;2023-02-24T10:01:19;16.75;;;11.77;;
39128;SDS011;24864;49.940;19.770;2023-02-24T10:04:00;19.88;;;12.75;;
39128;SDS011;24864;49.940;19.770;2023-02-24T10:06:47;17.20;;;13.27;;
39128;SDS011;24864;49.940;19.770;2023-02-24T10:09:19;16.38;;;11.73;;
39128;SDS011;24864;49.940;19.770;2023-02-24T10:11:53;15.75;;;12.00;;
39128;SDS011;24864;49.940;19.770;2023-02-24T10:14:31;16.20;;;12.20;;
39128;SDS011;24864;49.940;19.770;2023-02-24T10:17:13;19.77;;;12.07;;
39128;SDS011;24864;49.940;19.770;2023-02-24T10:19:56;16.27;;;11.52;;
39128;SDS011;24864;49.940;19.770;2023-02-24T10:22:40;17.77;;;11.45;;
39128;SDS011;24864;49.940;19.770;2023-02-24T10:25:24;16.38;;;11.27;;
39128;SDS011;24864;49.940;19.770;2023-02-24T10:28:04;19.23;;;11.75;;
39128;SDS011;24864;49.940;19.770;2023-02-24T10:30:42;16.02;;;10.90;;
39128;SDS011;24864;49.940;19.770;2023-02-24T10:33:19;16.42;;;12.02;;
39128;SDS011;24864;49.940;19.770;2023-02-24T10:36:03;20.83;;;13.82;;
39128;SDS011;24864;49.940;19.770;2023-02-24T10:38:35;15.55;;;11.80;;
39128;SDS011;24864;49.940;19.770;2023-02-24T10:41:08;15.00;;;11.30;;
39128;SDS011;24864;49.940;19.770;2023-02-24T10:43:37;15.38;;;10.43;;
39128;SDS011;24864;49.940;19.770;2023-02-24T10:46:20;22.00;;;11.35;;
39128;SDS011;24864;49.940;19.770;2023-02-24T10:49:07;14.05;;;8.52;;
39128;SDS011;24864;49.940;19.770;2023-02-24T10:51:43;19.30;;;9.55;;
39128;SDS011;24864;49.940;19.770;2023-02-24T10:54:18;14.30;;;9.27;;
39128;SDS011;24864;49.940;19.770;2023-02-24T10:57:05;14.05;;;9.15;;
39128;SDS011;24864;49.940;19.770;2023-02-24T10:59:42;12.02;;;8.38;;
39128;SDS011;24864;49.940;19.770;2023-02-24T11:02:45;16.92;;;9.68;;
39128;SDS011;24864;49.940;19.770;2023-02-24T11:05:37;13.00;;;9.10;;
39128;SDS011;24864;49.940;19.770;2023-02-24T11:08:10;18.48;;;9.63;;
39128;SDS011;24864;49.940;19.770;2023-02-24T11:11:06;12.82;;;9.38;;
39128;SDS011;24864;49.940;19.770;2023-02-24T11:13:50;12.23;;;8.27;;
39128;SDS011;24864;49.940;19.770;2023-02-24T11:16:41;16.10;;;9.57;;
39128;SDS011;24864;49.940;19.770;2023-02-24T11:19:28;13.75;;;9.27;;
39128;SDS011;24864;49.940;19.770;2023-02-24T11:21:58;16.48;;;8.65;;
39128;SDS011;24864;49.940;19.770;2023-02-24T11:24:28;12.48;;;9.55;;
39128;SDS011;24864;49.940;19.770;2023-02-24T11:26:56;13.60;;;8.75;;
39128;SDS011;24864;49.940;19.770;2023-02-24T11:29:31;13.15;;;7.38;;
39128;SDS011;24864;49.940;19.770;2023-02-24T11:32:18;10.20;;;7.10;;
39128;SDS011;24864;49.940;19.770;2023-02-24T11:34:54;14.63;;;9.00;;
39128;SDS011;24864;49.940;19.770;2023-02-24T11:37:30;14.55;;;8.90;;
39128;SDS011;24864;49.940;19.770;2023-02-24T11:40:04;12.43;;;9.30;;
39128;SDS011;24864;49.940;19.770;2023-02-24T11:42:35;12.95;;;9.02;;
39128;SDS011;24864;49.940;19.770;2023-02-24T11:45:11;13.43;;;8.23;;
39128;SDS011;24864;49.940;19.770;2023-02-24T11:47:50;10.55;;;8.82;;
39128;SDS011;24864;49.940;19.770;2023-02-24T11:50:31;12.35;;;9.02;;
39128;SDS011;24864;49.940;19.770;2023-02-24T11:53:08;15.13;;;8.82;;
39128;SDS011;24864;49.940;19.770;2023-02-24T11:55:50;10.80;;;8.82;;
39128;SDS011;24864;49.940;19.770;2023-02-24T11:58:25;12.73;;;8.38;;
39128;SDS011;24864;49.940;19.770;2023-02-24T12:01:00;17.60;;;10.00;;
39128;SDS011;24864;49.940;19.770;2023-02-24T12:03:31;13.48;;;8.60;;
39128;SDS011;24864;49.940;19.770;2023-02-24T12:06:08;13.15;;;8.43;;
39128;SDS011;24864;49.940;19.770;2023-02-24T12:08:40;11.75;;;8.77;;
39128;SDS011;24864;49.940;19.770;2023-02-24T12:11:13;11.73;;;8.52;;
39128;SDS011;24864;49.940;19.770;2023-02-24T12:13:49;12.85;;;8.98;;
39128;SDS011;24864;49.940;19.770;2023-02-24T12:16:21;16.13;;;8.98;;
39128;SDS011;24864;49.940;19.770;2023-02-24T12:18:54;12.15;;;9.05;;
39128;SDS011;24864;49.940;19.770;2023-02-24T12:21:26;15.20;;;10.30;;
39128;SDS011;24864;49.940;19.770;2023-02-24T12:23:59;17.25;;;10.02;;
39128;SDS011;24864;49.940;19.770;2023-02-24T12:26:34;14.70;;;9.35;;
39128;SDS011;24864;49.940;19.770;2023-02-24T12:29:13;14.13;;;9.20;;
39128;SDS011;24864;49.940;19.770;2023-02-24T12:31:54;17.00;;;11.18;;
39128;SDS011;24864;49.940;19.770;2023-02-24T12:34:35;16.10;;;9.85;;
39128;SDS011;24864;49.940;19.770;2023-02-24T12:37:18;14.48;;;9.52;;
39128;SDS011;24864;49.940;19.770;2023-02-24T12:39:55;21.60;;;10.30;;
39128;SDS011;24864;49.940;19.770;2023-02-24T12:42:30;18.20;;;11.38;;
39128;SDS011;24864;49.940;19.770;2023-02-24T12:45:03;17.05;;;10.57;;
39128;SDS011;24864;49.940;19.770;2023-02-24T12:47:42;20.08;;;11.27;;
39128;SDS011;24864;49.940;19.770;2023-02-24T12:50:25;18.50;;;10.93;;
39128;SDS011;24864;49.940;19.770;2023-02-24T12:53:03;17.23;;;10.05;;
39128;SDS011;24864;49.940;19.770;2023-02-24T12:55:38;14.48;;;10.48;;
39128;SDS011;24864;49.940;19.770;2023-02-24T12:58:11;17.98;;;11.30;;
39128;SDS011;24864;49.940;19.770;2023-02-24T13:00:43;15.80;;;10.45;;
39128;SDS011;24864;49.940;19.770;2023-02-24T13:03:24;16.35;;;10.10;;
39128;SDS011;24864;49.940;19.770;2023-02-24T13:06:01;15.73;;;10.82;;
39128;SDS011;24864;49.940;19.770;2023-02-24T13:08:37;27.30;;;16.33;;
39128;SDS011;24864;49.940;19.770;2023-02-24T13:11:12;14.45;;;11.85;;
39128;SDS011;24864;49.940;19.770;2023-02-24T13:13:46;20.33;;;11.85;;
39128;SDS011;24864;49.940;19.770;2023-02-24T13:16:26;14.38;;;9.63;;
39128;SDS011;24864;49.940;19.770;2023-02-24T13:19:04;14.38;;;10.80;;
39128;SDS011;24864;49.940;19.770;2023-02-24T13:21:33;18.42;;;11.68;;
39128;SDS011;24864;49.940;19.770;2023-02-24T13:24:01;15.75;;;11.45;;
39128;SDS011;24864;49.940;19.770;2023-02-24T13:26:30;14.38;;;10.77;;
39128;SDS011;24864;49.940;19.770;2023-02-24T13:28:59;16.98;;;10.82;;
39128;SDS011;24864;49.940;19.770;2023-02-24T13:31:38;14.27;;;10.32;;
39128;SDS011;24864;49.940;19.770;2023-02-24T13:34:14;15.45;;;10.68;;
39128;SDS011;24864;49.940;19.770;2023-02-24T13:36:56;18.58;;;11.52;;
39128;SDS011;24864;49.940;19.770;2023-02-24T13:39:30;17.15;;;10.82;;
39128;SDS011;24864;49.940;19.770;2023-02-24T13:42:00;18.48;;;11.88;;
39128;SDS011;24864;49.940;19.770;2023-02-24T13:44:30;15.90;;;10.93;;
39128;SDS011;24864;49.940;19.770;2023-02-24T13:47:13;27.75;;;15.15;;
39128;SDS011;24864;49.940;19.770;2023-02-24T13:50:20;23.50;;;12.75;;
39128;SDS011;24864;49.940;19.770;2023-02-24T13:53:16;18.90;;;11.63;;
39128;SDS011;24864;49.940;19.770;2023-02-24T13:55:57;18.52;;;12.95;;
39128;SDS011;24864;49.940;19.770;2023-02-24T13:58:48;19.93;;;12.13;;
39128;SDS011;24864;49.940;19.770;2023-02-24T14:01:43;18.85;;;11.52;;
39128;SDS011;24864;49.940;19.770;2023-02-24T14:04:14;15.63;;;11.20;;
39128;SDS011;24864;49.940;19.770;2023-02-24T14:06:46;18.88;;;9.90;;
39128;SDS011;24864;49.940;19.770;2023-02-24T14:09:17;14.95;;;9.05;;
39128;SDS011;24864;49.940;19.770;2023-02-24T14:11:49;14.18;;;8.32;;
39128;SDS011;24864;49.940;19.770;2023-02-24T14:14:19;18.38;;;9.88;;
39128;SDS011;24864;49.940;19.770;2023-02-24T14:16:48;15.15;;;9.60;;
39128;SDS011;24864;49.940;19.770;2023-02-24T14:19:17;14.02;;;9.43;;
39128;SDS011;24864;49.940;19.770;2023-02-24T14:21:48;19.75;;;10.60;;
39128;SDS011;24864;49.940;19.770;2023-02-24T14:24:17;15.25;;;10.07;;
39128;SDS011;24864;49.940;19.770;2023-02-24T14:26:46;13.68;;;9.52;;
39128;SDS011;24864;49.940;19.770;2023-02-24T14:29:18;17.10;;;11.18;;
39128;SDS011;24864;49.940;19.770;2023-02-24T14:31:48;18.17;;;11.27;;
39128;SDS011;24864;49.940;19.770;2023-02-24T14:34:19;14.10;;;9.50;;
39128;SDS011;24864;49.940;19.770;2023-02-24T14:36:49;22.55;;;10.95;;
39128;SDS011;24864;49.940;19.770;2023-02-24T14:39:20;15.25;;;10.30;;
39128;SDS011;24864;49.940;19.770;2023-02-24T14:41:49;13.85;;;10.27;;
39128;SDS011;24864;49.940;19.770;2023-02-24T14:44:20;16.85;;;10.65;;
39128;SDS011;24864;49.940;19.770;2023-02-24T14:46:49;15.10;;;9.98;;
39128;SDS011;24864;49.940;19.770;2023-02-24T14:49:20;15.07;;;9.82;;
39128;SDS011;24864;49.940;19.770;2023-02-24T14:51:53;20.30;;;10.43;;
39128;SDS011;24864;49.940;19.770;2023-02-24T14:54:28;12.55;;;8.80;;
39128;SDS011;24864;49.940;19.770;2023-02-24T14:57:03;15.10;;;9.20;;
39128;SDS011;24864;49.940;19.770;2023-02-24T14:59:32;19.33;;;9.00;;
39128;SDS011;24864;49.940;19.770;2023-02-24T15:02:03;17.17;;;8.05;;
39128;SDS011;24864;49.940;19.770;2023-02-24T15:04:34;13.85;;;8.07;;
39128;SDS011;24864;49.940;19.770;2023-02-24T15:07:11;16.17;;;8.98;;
39128;SDS011;24864;49.940;19.770;2023-02-24T15:09:44;15.82;;;8.52;;
39128;SDS011;24864;49.940;19.770;2023-02-24T15:12:18;12.23;;;8.23;;
39128;SDS011;24864;49.940;19.770;2023-02-24T15:14:49;10.85;;;7.90;;
39128;SDS011;24864;49.940;19.770;2023-02-24T15:17:18;13.10;;;7.85;;